Time;durP1;ratioP1;P1;durP2;ratioP2;P2;SDS_P1;SDS_P2;PMS_P1;PMS_P2;Temp;Humidity;BMP_temperature;BMP_pressure;BME280_temperature;BME280_humidity;BME280_pressure;Samples;Min_cycle;Max_cycle;Signal;HPM_P1;HPM_P2
2021/07/09 00:02:10;;;;;;;;;;;;;;;19.95;88.60;100153.09;5054579;28;1895;-66
2021/07/09 00:04:38;;;;;;;;;;;;;;;19.96;88.15;100163.06;5054551;28;976;-65
2021/07/09 00:07:05;;;;;;;;;;;;;;;19.95;88.30;100161.50;5054573;28;976;-67
2021/07/09 00:09:32;;;;;;;;;;;;;;;19.93;88.23;100163.97;5054459;28;869;-66
2021/07/09 00:11:58;;;;;;;;;;;;;;;19.94;88.25;100156.34;5054461;28;1033;-65
2021/07/09 00:14:26;;;;;;;;;;;;;;;19.96;88.03;100162.28;5054105;28;1377;-66
2021/07/09 00:16:52;;;;;;;;;;;;;;;19.98;87.78;100151.38;5054373;28;877;-66
2021/07/09 00:19:19;;;;;;;;;;;;;;;19.95;87.94;100155.09;5054380;28;884;-65
2021/07/09 00:21:46;;;;;;;;;;;;;;;19.92;87.94;100151.19;5054489;28;1977;-64
2021/07/09 00:24:13;;;;;;;;;;;;;;;19.93;87.85;100154.78;5054146;28;842;-64
2021/07/09 00:26:40;;;;;;;;;;;;;;;19.89;87.67;100146.50;5054233;28;842;-65
2021/07/09 00:29:07;;;;;;;;;;;;;;;19.88;87.75;100146.94;5054236;28;873;-66
2021/07/09 00:31:34;;;;;;;;;;;;;;;19.85;87.96;100148.66;5054093;28;854;-67
2021/07/09 00:34:05;;;;;;;;;;;;;;;19.81;87.78;100155.66;5054093;28;814;-65
2021/07/09 00:36:33;;;;;;;;;;;;;;;19.84;87.73;100144.28;5054321;28;838;-66
2021/07/09 00:39:04;;;;;;;;;;;;;;;19.85;87.48;100145.06;5053896;28;815;-66
2021/07/09 00:41:31;;;;;;;;;;;;;;;19.87;87.34;100146.19;5053934;28;1969;-65
2021/07/09 00:43:58;;;;;;;;;;;;;;;19.89;87.13;100143.69;5053807;28;910;-65
2021/07/09 00:46:51;;;;;;;;;;;;;;;19.90;86.99;100136.06;5053806;28;1033;-66
2021/07/09 00:49:17;;;;;;;;;;;;;;;19.86;86.88;100136.19;5051266;28;1435;-65
2021/07/09 00:51:44;;;;;;;;;;;;;;;19.81;86.80;100136.00;5053719;28;822;-65
2021/07/09 00:54:10;;;;;;;;;;;;;;;19.81;86.55;100136.78;5053557;28;834;-64
2021/07/09 00:56:37;;;;;;;;;;;;;;;19.83;86.84;100131.50;5053654;28;858;-65
2021/07/09 00:59:04;;;;;;;;;;;;;;;19.83;86.43;100128.69;5053388;28;846;-64
2021/07/09 01:01:32;;;;;;;;;;;;;;;19.85;86.09;100126.22;5053416;28;1947;-64
2021/07/09 01:03:58;;;;;;;;;;;;;;;19.85;85.22;100123.41;5053556;28;802;-66
2021/07/09 01:06:25;;;;;;;;;;;;;;;19.86;84.89;100118.56;5053371;28;855;-64
2021/07/09 01:08:51;;;;;;;;;;;;;;;19.85;84.36;100111.41;5053373;28;908;-64
2021/07/09 01:11:20;;;;;;;;;;;;;;;19.89;84.28;100118.44;5053469;28;811;-63
2021/07/09 01:13:46;;;;;;;;;;;;;;;19.93;84.01;100116.28;5053319;28;1371;-64
2021/07/09 01:16:13;;;;;;;;;;;;;;;19.92;84.07;100113.94;5053559;28;830;-63
2021/07/09 01:18:40;;;;;;;;;;;;;;;19.87;83.42;100111.75;5053180;28;859;-65
2021/07/09 01:21:07;;;;;;;;;;;;;;;19.86;83.93;100110.16;5053050;28;1906;-63
2021/07/09 01:23:35;;;;;;;;;;;;;;;19.81;83.43;100113.56;5053007;28;909;-66
2021/07/09 01:26:02;;;;;;;;;;;;;;;19.80;83.29;100115.59;5053035;28;811;-64
2021/07/09 01:28:29;;;;;;;;;;;;;;;19.80;83.07;100101.59;5053015;28;894;-64
2021/07/09 01:30:55;;;;;;;;;;;;;;;19.83;82.59;100097.84;5052972;28;846;-64
2021/07/09 01:33:21;;;;;;;;;;;;;;;19.85;82.72;100100.19;5052847;28;846;-66
2021/07/09 01:35:48;;;;;;;;;;;;;;;19.86;82.05;100090.53;5052905;28;806;-64
2021/07/09 01:38:15;;;;;;;;;;;;;;;19.87;82.05;100100.53;5052806;28;878;-64
2021/07/09 01:40:41;;;;;;;;;;;;;;;19.83;82.41;100097.84;5052995;28;873;-65
2021/07/09 01:43:07;;;;;;;;;;;;;;;19.79;81.04;100094.41;5052728;28;1014;-63
2021/07/09 01:45:34;;;;;;;;;;;;;;;19.88;82.15;100110.50;5052744;28;830;-62
2021/07/09 01:48:01;;;;;;;;;;;;;;;19.83;82.09;100103.47;5052679;28;818;-64
2021/07/09 01:50:27;;;;;;;;;;;;;;;19.78;82.21;100101.25;5052589;28;830;-65
2021/07/09 01:52:54;;;;;;;;;;;;;;;19.75;82.11;100102.16;5052411;28;876;-63
2021/07/09 01:55:21;;;;;;;;;;;;;;;19.76;81.78;100101.72;5052740;28;865;-66
2021/07/09 01:57:48;;;;;;;;;;;;;;;19.76;81.84;100103.75;5052488;28;1056;-64
2021/07/09 02:00:16;;;;;;;;;;;;;;;19.73;82.27;100113.06;5052403;28;854;-64
2021/07/09 02:02:43;;;;;;;;;;;;;;;19.70;81.97;100102.78;5052430;28;1892;-63
2021/07/09 02:05:12;;;;;;;;;;;;;;;19.68;82.13;100108.78;5052305;28;814;-64
2021/07/09 02:07:39;;;;;;;;;;;;;;;19.63;81.84;100101.00;5052286;28;799;-64
2021/07/09 02:10:07;;;;;;;;;;;;;;;19.63;81.87;100095.38;5051615;28;901;-64
2021/07/09 02:12:34;;;;;;;;;;;;;;;19.63;81.95;100102.97;5052292;28;946;-64
2021/07/09 02:15:01;;;;;;;;;;;;;;;19.59;82.12;100105.94;5051858;28;1243;-64
2021/07/09 02:17:27;;;;;;;;;;;;;;;19.58;81.93;100110.75;5052163;28;854;-64
2021/07/09 02:19:54;;;;;;;;;;;;;;;19.57;82.34;100103.59;5052009;28;862;-65
2021/07/09 02:22:21;;;;;;;;;;;;;;;19.57;82.07;100100.00;5051869;28;1987;-65
2021/07/09 02:24:48;;;;;;;;;;;;;;;19.56;82.16;100101.22;5051956;28;837;-64
2021/07/09 02:27:15;;;;;;;;;;;;;;;19.61;81.92;100105.47;5034014;28;1318;-64
2021/07/09 02:29:42;;;;;;;;;;;;;;;19.62;81.62;100098.63;5051951;28;810;-63
2021/07/09 02:32:10;;;;;;;;;;;;;;;19.55;81.74;100105.28;5051851;28;827;-64
2021/07/09 02:34:36;;;;;;;;;;;;;;;19.62;81.51;100104.25;5051824;28;923;-64
2021/07/09 02:37:04;;;;;;;;;;;;;;;19.59;81.66;100101.09;5051822;28;842;-65
2021/07/09 02:39:31;;;;;;;;;;;;;;;19.58;81.77;100099.53;5051822;28;905;-64
2021/07/09 02:41:58;;;;;;;;;;;;;;;19.60;81.44;100099.09;5051558;28;1949;-64
2021/07/09 02:44:25;;;;;;;;;;;;;;;19.62;81.40;100102.22;5051717;28;901;-64
2021/07/09 02:46:52;;;;;;;;;;;;;;;19.62;81.58;100101.44;5051656;28;881;-64
2021/07/09 02:49:19;;;;;;;;;;;;;;;19.59;81.50;100109.53;5051643;28;864;-66
2021/07/09 02:51:46;;;;;;;;;;;;;;;19.59;81.31;100109.53;5051528;28;799;-64
2021/07/09 02:54:13;;;;;;;;;;;;;;;19.57;81.25;100114.81;5051582;28;803;-64
2021/07/09 02:56:40;;;;;;;;;;;;;;;19.61;81.29;100120.28;5051523;28;877;-62
2021/07/09 02:59:07;;;;;;;;;;;;;;;19.66;81.11;100113.31;5051518;28;882;-64
2021/07/09 03:01:34;;;;;;;;;;;;;;;19.67;81.11;100115.66;5051459;28;1889;-63
2021/07/09 03:04:01;;;;;;;;;;;;;;;19.68;81.08;100110.81;5051430;28;909;-63
2021/07/09 03:06:26;;;;;;;;;;;;;;;19.70;81.19;100111.19;5051475;28;803;-64
2021/07/09 03:08:54;;;;;;;;;;;;;;;19.69;81.01;100109.56;5033547;28;1349;-63
2021/07/09 03:11:21;;;;;;;;;;;;;;;19.70;81.21;100116.78;5051349;28;823;-64
2021/07/09 03:13:46;;;;;;;;;;;;;;;19.71;81.15;100119.13;5050949;28;1209;-63
2021/07/09 03:16:12;;;;;;;;;;;;;;;19.75;81.14;100113.38;5051405;28;850;-64
2021/07/09 03:18:39;;;;;;;;;;;;;;;19.82;80.57;100121.50;5051272;28;823;-64
2021/07/09 03:21:06;;;;;;;;;;;;;;;19.88;80.44;100116.88;5053194;28;1906;-63
2021/07/09 03:23:32;;;;;;;;;;;;;;;19.92;80.37;100116.75;5055339;28;880;-64
2021/07/09 03:26:00;;;;;;;;;;;;;;;20.00;80.18;100123.66;5055316;28;810;-63
2021/07/09 03:28:27;;;;;;;;;;;;;;;20.05;80.22;100114.63;5055646;28;902;-63
2021/07/09 03:30:54;;;;;;;;;;;;;;;20.12;79.74;100114.38;5055173;28;882;-63
2021/07/09 03:33:21;;;;;;;;;;;;;;;20.26;79.35;100112.22;5055235;28;834;-65
2021/07/09 03:35:47;;;;;;;;;;;;;;;20.33;79.25;100106.31;5055281;28;810;-63
2021/07/09 03:38:14;;;;;;;;;;;;;;;20.36;79.11;100111.03;5055213;28;799;-64
2021/07/09 03:40:41;;;;;;;;;;;;;;;20.52;78.51;100107.94;5055299;28;825;-63
2021/07/09 03:43:08;;;;;;;;;;;;;;;20.70;78.16;100109.28;5054976;28;1881;-64
2021/07/09 03:45:34;;;;;;;;;;;;;;;20.69;78.47;100116.91;5054971;28;830;-65
2021/07/09 03:47:59;;;;;;;;;;;;;;;20.76;77.89;100105.38;5054903;28;895;-64
2021/07/09 03:50:26;;;;;;;;;;;;;;;20.73;78.19;100106.28;5055040;28;811;-64
2021/07/09 03:52:52;;;;;;;;;;;;;;;20.76;78.06;100113.81;5054834;28;901;-63
2021/07/09 03:55:19;;;;;;;;;;;;;;;20.79;77.96;100110.06;5054852;28;827;-63
2021/07/09 03:57:46;;;;;;;;;;;;;;;20.82;77.89;100110.38;5054750;28;877;-63
2021/07/09 04:00:14;;;;;;;;;;;;;;;20.86;77.55;100111.78;5054722;28;839;-65
2021/07/09 04:02:41;;;;;;;;;;;;;;;20.98;77.76;100110.84;5054786;28;1953;-63
2021/07/09 04:05:07;;;;;;;;;;;;;;;21.11;77.68;100115.56;5054848;28;838;-63
2021/07/09 04:07:34;;;;;;;;;;;;;;;21.23;76.97;100116.63;5054612;28;877;-64
2021/07/09 04:10:01;;;;;;;;;;;;;;;21.31;76.57;100121.47;5054574;28;881;-64
2021/07/09 04:12:28;;;;;;;;;;;;;;;21.44;76.57;100123.38;5054491;28;917;-64
2021/07/09 04:14:55;;;;;;;;;;;;;;;21.57;76.08;100124.78;5054116;28;1478;-63
2021/07/09 04:17:21;;;;;;;;;;;;;;;21.68;75.36;100120.69;5054619;28;814;-63
2021/07/09 04:19:51;;;;;;;;;;;;;;;21.72;76.03;100122.09;5054538;28;827;-64
2021/07/09 04:22:19;;;;;;;;;;;;;;;21.78;76.21;100125.81;5054253;28;2372;-64
2021/07/09 04:24:45;;;;;;;;;;;;;;;21.93;75.21;100122.34;5054276;28;846;-64
2021/07/09 04:27:13;;;;;;;;;;;;;;;22.10;74.15;100128.38;5054153;28;854;-64
2021/07/09 04:29:38;;;;;;;;;;;;;;;22.28;74.12;100127.59;5052880;28;1203;-65
2021/07/09 04:32:05;;;;;;;;;;;;;;;22.47;73.38;100126.22;5053445;28;905;-63
2021/07/09 04:34:32;;;;;;;;;;;;;;;22.70;72.81;100126.72;5054137;28;782;-65
2021/07/09 04:36:59;;;;;;;;;;;;;;;22.99;72.09;100132.47;5053969;28;807;-63
2021/07/09 04:39:25;;;;;;;;;;;;;;;23.34;71.79;100125.50;5054077;28;878;-66
2021/07/09 04:41:52;;;;;;;;;;;;;;;23.71;69.44;100125.94;5053983;28;1894;-65
2021/07/09 04:44:19;;;;;;;;;;;;;;;23.91;68.99;100130.16;5035952;28;1288;-64
2021/07/09 04:46:46;;;;;;;;;;;;;;;24.03;68.80;100129.06;5053831;28;815;-64
2021/07/09 04:49:12;;;;;;;;;;;;;;;24.02;68.84;100135.97;5053670;28;925;-65
2021/07/09 04:51:38;;;;;;;;;;;;;;;23.89;69.25;100127.81;5053799;28;819;-64
2021/07/09 04:54:05;;;;;;;;;;;;;;;23.72;70.44;100132.34;5035823;28;788;-64
2021/07/09 04:56:32;;;;;;;;;;;;;;;23.56;69.51;100130.81;5053640;28;842;-64
2021/07/09 04:59:00;;;;;;;;;;;;;;;23.49;70.98;100128.34;5053640;28;799;-64
2021/07/09 05:01:26;;;;;;;;;;;;;;;23.44;71.20;100129.78;5053523;28;1953;-65
2021/07/09 05:03:53;;;;;;;;;;;;;;;23.47;70.58;100140.13;5053428;28;879;-66
2021/07/09 05:06:20;;;;;;;;;;;;;;;23.53;69.97;100128.94;5053536;28;815;-64
2021/07/09 05:13:57;;;;;;;;;;;;;;;24.02;69.71;100130.31;5485403;22;1894;-63
2021/07/09 05:16:24;;;;;;;;;;;;;;;24.23;68.37;100120.66;5073336;28;893;-65
2021/07/09 05:18:52;;;;;;;;;;;;;;;24.53;67.90;100123.44;5073515;28;900;-66
2021/07/09 05:21:19;;;;;;;;;;;;;;;24.78;66.54;100126.88;5073058;28;1910;-64
2021/07/09 05:23:46;;;;;;;;;;;;;;;25.03;66.48;100109.19;5073162;28;834;-64
2021/07/09 05:26:12;;;;;;;;;;;;;;;25.25;65.20;100134.16;5073150;28;884;-63
2021/07/09 05:28:39;;;;;;;;;;;;;;;25.46;63.23;100123.59;5073174;28;814;-63
2021/07/09 05:31:06;;;;;;;;;;;;;;;25.57;63.51;100117.25;5073023;28;905;-63
2021/07/09 05:33:33;;;;;;;;;;;;;;;25.74;64.27;100122.31;5072971;28;829;-63
2021/07/09 05:36:00;;;;;;;;;;;;;;;26.18;63.36;100123.97;5072962;28;841;-63
2021/07/09 05:38:25;;;;;;;;;;;;;;;26.63;61.48;100127.94;5072827;28;822;-63
2021/07/09 05:40:52;;;;;;;;;;;;;;;27.05;60.40;100129.13;5072787;28;915;-63
2021/07/09 05:43:20;;;;;;;;;;;;;;;27.02;60.39;100132.25;5072347;28;872;-63
2021/07/09 05:45:47;;;;;;;;;;;;;;;27.20;60.35;100131.00;5072373;28;861;-64
2021/07/09 05:48:13;;;;;;;;;;;;;;;27.49;58.32;100133.44;5072721;28;873;-63
2021/07/09 05:50:41;;;;;;;;;;;;;;;27.64;58.01;100138.13;5072560;28;795;-64
2021/07/09 05:53:08;;;;;;;;;;;;;;;27.79;58.84;100141.50;5072528;28;854;-63
2021/07/09 05:55:35;;;;;;;;;;;;;;;27.98;58.75;100135.34;5072511;28;821;-62
2021/07/09 05:58:02;;;;;;;;;;;;;;;28.15;58.38;100141.03;5072446;28;902;-62
2021/07/09 06:00:28;;;;;;;;;;;;;;;28.53;57.92;100147.97;5072399;28;842;-63
2021/07/09 06:02:54;;;;;;;;;;;;;;;28.90;56.87;100133.38;5072321;28;1889;-63
2021/07/09 06:05:21;;;;;;;;;;;;;;;29.02;56.42;100141.88;5072322;28;849;-62
2021/07/09 06:07:48;;;;;;;;;;;;;;;29.41;57.22;100135.25;5072355;28;858;-63
2021/07/09 06:10:14;;;;;;;;;;;;;;;29.79;55.16;100129.84;5072234;28;888;-64
2021/07/09 06:12:41;;;;;;;;;;;;;;;30.01;52.65;100131.75;5072053;28;917;-62
2021/07/09 06:15:08;;;;;;;;;;;;;;;30.18;52.57;100137.31;5072152;28;1320;-62
2021/07/09 06:17:34;;;;;;;;;;;;;;;29.85;50.14;100139.91;5072054;28;902;-62
2021/07/09 06:20:04;;;;;;;;;;;;;;;29.53;52.06;100125.31;5072060;28;838;-63
2021/07/09 06:22:31;;;;;;;;;;;;;;;29.30;52.07;100125.47;5071952;28;1981;-63
2021/07/09 06:24:58;;;;;;;;;;;;;;;29.46;54.36;100131.59;5072227;28;897;-63
2021/07/09 06:27:25;;;;;;;;;;;;;;;29.85;54.60;100125.66;5071979;28;822;-63
2021/07/09 06:29:52;;;;;;;;;;;;;;;30.22;51.71;100123.53;5071946;28;978;-62
2021/07/09 06:32:18;;;;;;;;;;;;;;;30.05;52.66;100124.44;5071882;28;850;-62
2021/07/09 06:34:44;;;;;;;;;;;;;;;30.22;51.92;100124.31;5071737;28;945;-61
2021/07/09 06:37:11;;;;;;;;;;;;;;;30.12;50.83;100125.94;5071892;28;806;-62
2021/07/09 06:39:37;;;;;;;;;;;;;;;29.93;52.82;100120.16;5071737;28;817;-64
2021/07/09 06:42:04;;;;;;;;;;;;;;;30.01;52.90;100118.25;5071554;28;1906;-62
2021/07/09 06:44:31;;;;;;;;;;;;;;;30.28;51.05;100125.06;5071798;28;807;-64
2021/07/09 06:46:58;;;;;;;;;;;;;;;30.37;50.11;100123.16;5071723;28;841;-62
2021/07/09 06:49:25;;;;;;;;;;;;;;;30.58;51.55;100127.09;5071595;28;858;-63
2021/07/09 06:51:51;;;;;;;;;;;;;;;30.66;51.92;100130.88;5071995;28;853;-64
2021/07/09 06:54:18;;;;;;;;;;;;;;;30.76;52.58;100131.28;5071951;28;822;-63
2021/07/09 06:56:45;;;;;;;;;;;;;;;31.06;50.53;100136.13;5071267;28;871;-62
2021/07/09 06:59:12;;;;;;;;;;;;;;;31.06;50.06;100119.78;5071635;28;810;-62
2021/07/09 07:01:39;;;;;;;;;;;;;;;31.19;51.36;100124.03;5071658;28;1955;-64
2021/07/09 07:04:07;;;;;;;;;;;;;;;31.56;49.94;100126.13;5071687;28;845;-63
2021/07/09 07:06:34;;;;;;;;;;;;;;;31.76;48.67;100126.88;5071584;28;869;-63
2021/07/09 07:09:00;;;;;;;;;;;;;;;31.53;48.15;100127.97;5071563;28;837;-62
2021/07/09 07:11:27;;;;;;;;;;;;;;;31.36;50.61;100127.41;5071339;28;834;-62
2021/07/09 07:13:54;;;;;;;;;;;;;;;31.82;47.22;100127.56;5071407;28;1200;-63
2021/07/09 07:16:20;;;;;;;;;;;;;;;31.45;49.65;100129.13;5071652;28;817;-65
2021/07/09 07:18:47;;;;;;;;;;;;;;;31.16;49.83;100122.28;5071334;28;814;-63
2021/07/09 07:21:14;;;;;;;;;;;;;;;31.72;50.42;100130.03;5071319;28;1977;-64
2021/07/09 07:23:39;;;;;;;;;;;;;;;32.07;49.38;100131.06;5071410;28;817;-63
2021/07/09 07:26:06;;;;;;;;;;;;;;;32.37;47.93;100135.72;5071210;28;917;-63
2021/07/09 07:28:32;;;;;;;;;;;;;;;32.19;48.05;100134.50;5071335;28;798;-64
2021/07/09 07:30:59;;;;;;;;;;;;;;;32.09;48.15;100142.72;5071457;28;802;-62
2021/07/09 07:33:26;;;;;;;;;;;;;;;31.93;48.37;100133.84;5071305;28;848;-63
2021/07/09 07:35:52;;;;;;;;;;;;;;;32.10;48.48;100142.16;5071506;28;806;-62
2021/07/09 07:38:19;;;;;;;;;;;;;;;32.05;48.83;100148.78;5071434;28;892;-62
2021/07/09 07:40:49;;;;;;;;;;;;;;;32.48;47.56;100144.88;5071296;28;822;-63
2021/07/09 07:43:16;;;;;;;;;;;;;;;32.60;46.47;100136.88;5071125;28;1941;-62
2021/07/09 07:45:42;;;;;;;;;;;;;;;32.62;47.86;100156.34;5071371;28;810;-61
2021/07/09 07:48:09;;;;;;;;;;;;;;;32.71;48.25;100145.25;5071087;28;857;-63
2021/07/09 07:50:35;;;;;;;;;;;;;;;32.83;45.47;100142.16;5071051;28;826;-62
2021/07/09 07:53:02;;;;;;;;;;;;;;;32.78;46.35;100132.38;5071100;28;881;-63
2021/07/09 07:55:29;;;;;;;;;;;;;;;32.72;46.63;100141.06;5071186;28;818;-64
2021/07/09 07:57:56;;;;;;;;;;;;;;;33.22;49.27;100132.00;5071273;28;877;-62
2021/07/09 08:00:23;;;;;;;;;;;;;;;33.82;45.45;100134.03;5071261;28;806;-63
2021/07/09 08:02:50;;;;;;;;;;;;;;;34.04;49.57;100135.56;5071142;28;1881;-64
2021/07/09 08:05:17;;;;;;;;;;;;;;;34.41;46.77;100136.44;5070998;28;821;-62
2021/07/09 08:07:44;;;;;;;;;;;;;;;34.32;43.28;100134.88;5072316;28;802;-63
2021/07/09 08:10:11;;;;;;;;;;;;;;;34.37;44.38;100144.66;5074663;28;869;-64
2021/07/09 08:12:38;;;;;;;;;;;;;;;34.58;47.19;100139.63;5074762;28;939;-64
2021/07/09 08:15:05;;;;;;;;;;;;;;;35.36;49.21;100137.97;5074466;28;1255;-65
2021/07/09 08:17:32;;;;;;;;;;;;;;;35.89;46.88;100139.44;5074433;28;857;-65
2021/07/09 08:19:59;;;;;;;;;;;;;;;35.91;44.78;100134.66;5074507;28;850;-64
2021/07/09 08:22:25;;;;;;;;;;;;;;;36.02;45.28;100133.50;5074384;28;1969;-65
2021/07/09 08:24:52;;;;;;;;;;;;;;;36.20;45.29;100131.63;5074674;28;814;-64
2021/07/09 08:27:19;;;;;;;;;;;;;;;36.74;47.44;100134.44;5074459;28;881;-65
2021/07/09 08:29:46;;;;;;;;;;;;;;;37.18;46.51;100132.00;5074741;28;901;-65
2021/07/09 08:32:13;;;;;;;;;;;;;;;37.06;48.11;100139.50;5074533;28;869;-64
2021/07/09 08:34:39;;;;;;;;;;;;;;;37.33;42.98;100134.03;5074275;28;873;-65
2021/07/09 08:37:05;;;;;;;;;;;;;;;35.80;49.52;100128.50;5074599;28;967;-65
2021/07/09 08:39:32;;;;;;;;;;;;;;;35.02;51.71;100121.72;5074165;28;873;-64
2021/07/09 08:41:58;;;;;;;;;;;;;;;35.79;50.14;100119.13;5073886;28;1933;-65
2021/07/09 08:44:25;;;;;;;;;;;;;;;36.45;46.51;100120.28;5073874;28;810;-65
2021/07/09 08:46:55;;;;;;;;;;;;;;;36.61;44.24;100109.50;5073938;28;806;-65
2021/07/09 08:49:22;;;;;;;;;;;;;;;36.57;46.18;100111.97;5074029;28;822;-65
2021/07/09 08:51:49;;;;;;;;;;;;;;;36.70;43.53;100111.81;5074135;28;857;-65
2021/07/09 08:54:17;;;;;;;;;;;;;;;36.57;43.20;100106.22;5074023;28;900;-63
2021/07/09 08:56:44;;;;;;;;;;;;;;;36.53;43.80;100114.50;5073913;28;802;-64
2021/07/09 08:59:11;;;;;;;;;;;;;;;36.42;45.55;100109.91;5073839;28;845;-65
2021/07/09 09:01:47;;;;;;;;;;;;;;;36.80;46.85;100109.06;5073771;28;1889;-65
2021/07/09 09:04:14;;;;;;;;;;;;;;;37.01;45.87;100110.94;5073656;28;801;-65
2021/07/09 09:06:41;;;;;;;;;;;;;;;36.71;44.24;100109.69;5073508;28;860;-65
2021/07/09 09:09:16;;;;;;;;;;;;;;;36.46;45.75;100109.53;5073450;28;815;-65
2021/07/09 09:12:03;;;;;;;;;;;;;;;36.63;40.18;100111.81;5073502;28;846;-62
2021/07/09 09:14:32;;;;;;;;;;;;;;;36.05;37.76;100100.72;5059031;28;1223;-63
2021/07/09 09:16:58;;;;;;;;;;;;;;;35.66;42.41;100104.94;5073328;28;857;-64
2021/07/09 09:19:25;;;;;;;;;;;;;;;35.00;46.73;100109.28;5073181;28;891;-64
2021/07/09 09:22:09;;;;;;;;;;;;;;;35.35;46.51;100096.97;5073145;28;1977;-64
2021/07/09 09:24:36;;;;;;;;;;;;;;;35.95;43.48;100105.50;5073193;28;827;-65
2021/07/09 09:27:16;;;;;;;;;;;;;;;35.13;49.95;100100.50;5073140;28;868;-64
2021/07/09 09:29:43;;;;;;;;;;;;;;;33.72;50.33;100096.50;5073125;28;826;-66
2021/07/09 09:32:10;;;;;;;;;;;;;;;33.68;44.80;100101.78;5072972;28;921;-65
2021/07/09 09:34:41;;;;;;;;;;;;;;;34.03;49.97;100098.84;5073233;28;913;-65
2021/07/09 09:37:08;;;;;;;;;;;;;;;33.05;49.34;100104.50;5072880;28;880;-66
2021/07/09 09:39:38;;;;;;;;;;;;;;;32.14;54.45;100111.19;5072774;28;913;-66
2021/07/09 09:42:18;;;;;;;;;;;;;;;32.27;55.63;100110.44;5072769;28;1881;-66
2021/07/09 09:45:05;;;;;;;;;;;;;;;33.12;47.98;100100.97;5072766;28;861;-65
2021/07/09 09:47:34;;;;;;;;;;;;;;;32.61;47.12;100109.81;5072438;28;1675;-64
2021/07/09 09:50:03;;;;;;;;;;;;;;;32.88;50.22;100098.34;5072656;28;841;-64
2021/07/09 09:52:33;;;;;;;;;;;;;;;33.49;49.77;100092.59;5072844;28;878;-64
2021/07/09 09:55:09;;;;;;;;;;;;;;;33.87;46.67;100086.50;5072891;28;880;-64
2021/07/09 09:57:37;;;;;;;;;;;;;;;33.75;48.33;100089.63;5072698;28;1358;-63
2021/07/09 10:00:08;;;;;;;;;;;;;;;32.84;51.06;100095.03;5072681;28;1128;-64
2021/07/09 10:02:36;;;;;;;;;;;;;;;32.01;44.15;100096.09;5072331;28;1890;-65
2021/07/09 10:05:03;;;;;;;;;;;;;;;32.00;47.44;100095.31;5072641;28;894;-64
2021/07/09 10:07:32;;;;;;;;;;;;;;;32.03;47.18;100102.00;5072306;28;841;-63
2021/07/09 10:09:59;;;;;;;;;;;;;;;32.16;47.79;100099.19;5072176;28;806;-64
2021/07/09 10:12:27;;;;;;;;;;;;;;;32.31;47.01;100098.66;5072173;28;1031;-64
2021/07/09 10:14:54;;;;;;;;;;;;;;;32.27;49.85;100095.38;5071878;28;1253;-64
2021/07/09 10:17:21;;;;;;;;;;;;;;;31.83;46.32;100092.69;5072313;28;865;-65
2021/07/09 10:19:48;;;;;;;;;;;;;;;31.34;48.11;100090.06;5072047;28;854;-65
2021/07/09 10:22:15;;;;;;;;;;;;;;;31.57;45.95;100092.63;5071997;28;1973;-64
2021/07/09 10:24:46;;;;;;;;;;;;;;;31.28;47.41;100083.66;5072000;28;878;-65
2021/07/09 10:27:14;;;;;;;;;;;;;;;30.79;49.44;100087.44;5071988;28;848;-65
2021/07/09 10:29:44;;;;;;;;;;;;;;;31.13;49.13;100096.34;5071620;28;866;-65
2021/07/09 10:32:11;;;;;;;;;;;;;;;31.77;45.94;100082.69;5071928;28;865;-65
2021/07/09 10:34:38;;;;;;;;;;;;;;;32.18;39.79;100087.19;5072071;28;802;-64
2021/07/09 10:37:18;;;;;;;;;;;;;;;32.38;41.67;100092.28;5071807;28;865;-64
2021/07/09 10:39:48;;;;;;;;;;;;;;;32.54;37.86;100093.31;5071777;28;794;-63
2021/07/09 10:42:18;;;;;;;;;;;;;;;32.77;39.92;100072.81;5071676;28;1886;-64
2021/07/09 10:45:03;;;;;;;;;;;;;;;33.09;39.72;100069.81;5071879;28;802;-64
2021/07/09 10:47:37;;;;;;;;;;;;;;;33.51;37.45;100053.47;5071603;28;1026;-64
2021/07/09 10:50:05;;;;;;;;;;;;;;;33.51;37.12;100076.38;5071757;28;904;-65
2021/07/09 10:52:44;;;;;;;;;;;;;;;33.15;37.59;100074.09;5053575;28;1216;-64
2021/07/09 10:55:27;;;;;;;;;;;;;;;32.13;39.55;100063.91;5071678;28;802;-64
2021/07/09 10:58:09;;;;;;;;;;;;;;;31.30;42.15;100069.63;5071600;28;829;-64
2021/07/09 11:00:43;;;;;;;;;;;;;;;31.12;44.45;100065.47;5071547;28;791;-64
2021/07/09 11:03:10;;;;;;;;;;;;;;;31.77;42.80;100071.25;5071431;28;1927;-64
2021/07/09 11:05:47;;;;;;;;;;;;;;;32.08;43.77;100067.63;5071673;28;806;-64
2021/07/09 11:08:32;;;;;;;;;;;;;;;31.48;42.76;100070.94;5071616;28;790;-65
2021/07/09 11:11:00;;;;;;;;;;;;;;;31.48;43.12;100068.88;5071393;28;866;-63
2021/07/09 11:13:44;;;;;;;;;;;;;;;31.88;43.18;100066.13;5071408;28;1372;-64
2021/07/09 11:16:27;;;;;;;;;;;;;;;31.45;42.97;100066.31;5071490;28;893;-64
2021/07/09 11:18:53;;;;;;;;;;;;;;;30.30;42.24;100071.13;5071385;28;833;-63
2021/07/09 11:21:32;;;;;;;;;;;;;;;30.21;44.97;100056.41;5071298;28;1967;-66
2021/07/09 11:23:59;;;;;;;;;;;;;;;31.39;44.21;100054.16;5071352;28;861;-65
2021/07/09 11:26:30;;;;;;;;;;;;;;;32.24;42.78;100060.06;5071476;28;831;-65
2021/07/09 11:29:00;;;;;;;;;;;;;;;32.17;41.76;100049.25;5072183;28;846;-64
2021/07/09 11:31:34;;;;;;;;;;;;;;;31.85;42.41;100049.31;5071234;28;819;-66
2021/07/09 11:34:05;;;;;;;;;;;;;;;31.41;40.15;100038.06;5071577;28;889;-65
2021/07/09 11:36:40;;;;;;;;;;;;;;;30.31;43.39;100041.28;5071178;28;818;-65
2021/07/09 11:39:09;;;;;;;;;;;;;;;30.25;44.53;100046.25;5071506;28;864;-64
2021/07/09 11:41:56;;;;;;;;;;;;;;;31.13;41.69;100036.41;5071161;28;1960;-65
2021/07/09 11:44:25;;;;;;;;;;;;;;;31.63;39.43;100036.19;5061285;28;1335;-65
2021/07/09 11:46:54;;;;;;;;;;;;;;;32.08;37.28;100029.69;5075288;28;818;-65
2021/07/09 11:49:22;;;;;;;;;;;;;;;31.74;36.79;100038.84;5075014;28;790;-65
2021/07/09 11:51:50;;;;;;;;;;;;;;;31.89;37.67;100038.31;5074923;28;893;-65
2021/07/09 11:54:27;;;;;;;;;;;;;;;32.28;36.50;100025.41;5074813;28;857;-66
2021/07/09 11:56:58;;;;;;;;;;;;;;;32.61;37.12;100017.50;5074812;28;882;-66
2021/07/09 11:59:25;;;;;;;;;;;;;;;32.67;33.53;100021.78;5075001;28;889;-64
2021/07/09 12:02:07;;;;;;;;;;;;;;;32.39;33.57;100018.69;5075035;28;1894;-65
2021/07/09 12:04:35;;;;;;;;;;;;;;;32.43;35.87;100022.75;5074736;28;791;-63
2021/07/09 12:07:21;;;;;;;;;;;;;;;32.63;34.98;100012.75;5074471;28;862;-64
2021/07/09 12:09:50;;;;;;;;;;;;;;;32.71;34.36;100013.63;5074513;28;901;-65
2021/07/09 12:12:17;;;;;;;;;;;;;;;32.62;33.15;100011.22;5074516;28;1059;-65
2021/07/09 12:14:51;;;;;;;;;;;;;;;32.64;34.21;100011.44;5074374;28;1277;-64
2021/07/09 12:17:19;;;;;;;;;;;;;;;32.81;33.40;100016.03;5074288;28;949;-64
2021/07/09 12:19:51;;;;;;;;;;;;;;;32.86;32.77;100013.06;5074548;28;802;-65
2021/07/09 12:22:22;;;;;;;;;;;;;;;33.22;34.57;100006.00;5074231;28;2001;-65
2021/07/09 12:24:52;;;;;;;;;;;;;;;33.09;32.97;100010.44;5074399;28;810;-65
2021/07/09 12:27:19;;;;;;;;;;;;;;;33.08;32.94;100008.16;5056369;28;893;-64
2021/07/09 12:29:47;;;;;;;;;;;;;;;33.04;33.92;100010.56;5074142;28;799;-65
2021/07/09 12:32:13;;;;;;;;;;;;;;;33.15;33.41;100010.31;5074198;28;830;-65
2021/07/09 12:34:40;;;;;;;;;;;;;;;33.79;33.47;100011.13;5074146;28;818;-64
2021/07/09 12:37:07;;;;;;;;;;;;;;;34.27;34.39;99994.47;5074015;28;807;-63
2021/07/09 12:39:34;;;;;;;;;;;;;;;34.38;31.85;100005.63;5074149;28;854;-64
2021/07/09 12:42:12;;;;;;;;;;;;;;;34.28;31.59;100008.25;5073924;28;1877;-65
2021/07/09 12:44:59;;;;;;;;;;;;;;;34.03;30.99;100004.22;5074036;28;818;-64
2021/07/09 12:47:26;;;;;;;;;;;;;;;33.67;31.78;100005.69;5073790;28;1469;-65
2021/07/09 12:50:12;;;;;;;;;;;;;;;33.31;30.50;100002.69;5073837;28;954;-66
2021/07/09 12:52:37;;;;;;;;;;;;;;;32.96;33.08;100002.66;5073969;28;877;-65
2021/07/09 12:55:04;;;;;;;;;;;;;;;33.18;32.57;100009.22;5073719;28;877;-65
2021/07/09 12:57:31;;;;;;;;;;;;;;;33.04;32.53;99999.13;5074088;28;817;-64
2021/07/09 12:59:58;;;;;;;;;;;;;;;33.23;33.05;99999.72;5074114;28;830;-64
2021/07/09 13:02:25;;;;;;;;;;;;;;;33.70;32.64;99995.97;5074037;28;1886;-64
2021/07/09 13:04:51;;;;;;;;;;;;;;;34.03;33.14;99998.50;5074312;28;759;-66
2021/07/09 13:07:21;;;;;;;;;;;;;;;34.19;33.08;100002.28;5073924;28;866;-65